Observation data for Wolfforth on 02/15/2017      Previous  Date  Next       Current Mesonet Observations  Soil Data  Daily Summary Page  Observations in Plain Language
KWOS 150600Z 31012KT 02/M01 A3019 RMK A01 T00181014  RH  080%=      5-min Rain = 0
KWOS 150605Z 32012KT 02/M01 A3019 RMK A01 T00191014  RH  080%=      5-min Rain = 0
KWOS 150610Z 32011KT 02/M02 A3019 RMK A01 T00181015  RH  080%=      5-min Rain = 0
KWOS 150615Z 32013KT 02/M02 A3019 RMK A01 T00181015  RH  079%=      5-min Rain = 0
KWOS 150620Z 32012KT 02/M02 A3019 RMK A01 T00181016  RH  079%=      5-min Rain = 0
KWOS 150625Z 32012KT 02/M02 A3019 RMK A01 T00171016  RH  080%=      5-min Rain = 0
KWOS 150630Z 32012KT 02/M02 A3019 RMK A01 T00171017  RH  079%=      5-min Rain = 0
KWOS 150635Z 32012KT 02/M02 A3019 RMK A01 T00171017  RH  079%=      5-min Rain = 0
KWOS 150640Z 32012KT 02/M02 A3019 RMK A01 T00171017  RH  079%=      5-min Rain = 0
KWOS 150645Z 32011KT 02/M02 A3019 RMK A01 T00161018  RH  079%=      5-min Rain = 0
KWOS 150650Z 32011KT 02/M02 A3019 RMK A01 T00161018  RH  079%=      5-min Rain = 0
KWOS 150655Z 32011KT 02/M02 A3019 RMK A01 T00161018  RH  079%=      5-min Rain = 0
KWOS 150700Z 32010KT 02/M02 A3019 RMK A01 T00161019  RH  078%=      5-min Rain = 0
KWOS 150705Z 32010KT 02/M02 A3019 RMK A01 T00151019  RH  079%=      5-min Rain = 0
KWOS 150710Z 32010KT 02/M02 A3019 RMK A01 T00151019  RH  079%=      5-min Rain = 0
KWOS 150715Z 32010KT 01/M02 A3019 RMK A01 T00141019  RH  080%=      5-min Rain = 0
KWOS 150720Z 32010KT 01/M02 A3019 RMK A01 T00141019  RH  080%=      5-min Rain = 0
KWOS 150725Z 32009KT 01/M02 A3019 RMK A01 T00131019  RH  080%=      5-min Rain = 0
KWOS 150730Z 32008KT 01/M02 A302 RMK A01 T00131019  RH  080%=      5-min Rain = 0
KWOS 150735Z 32007KT 01/M02 A302 RMK A01 T00111019  RH  081%=      5-min Rain = 0
KWOS 150740Z 32008KT 01/M02 A302 RMK A01 T00101019  RH  082%=      5-min Rain = 0
KWOS 150745Z 31009KT 01/M02 A302 RMK A01 T00121019  RH  081%=      5-min Rain = 0
KWOS 150750Z 31009KT 01/M02 A302 RMK A01 T00121019  RH  080%=      5-min Rain = 0
KWOS 150755Z 31008KT 01/M02 A302 RMK A01 T00111019  RH  081%=      5-min Rain = 0
KWOS 150800Z 31009KT 01/M02 A302 RMK A01 T00101019  RH  082%=      5-min Rain = 0
KWOS 150805Z 31009KT 01/M02 A302 RMK A01 T00101019  RH  082%=      5-min Rain = 0
KWOS 150810Z 31009KT 01/M02 A302 RMK A01 T00111019  RH  081%=      5-min Rain = 0
KWOS 150815Z 31009KT 01/M02 A302 RMK A01 T00101019  RH  081%=      5-min Rain = 0
KWOS 150820Z 32010KT 01/M02 A302 RMK A01 T00111020  RH  081%=      5-min Rain = 0
KWOS 150825Z 32010KT 01/M02 A302 RMK A01 T00111020  RH  081%=      5-min Rain = 0
KWOS 150830Z 32011KT 01/M02 A302 RMK A01 T00111019  RH  081%=      5-min Rain = 0
KWOS 150835Z 32010KT 01/M02 A302 RMK A01 T00111019  RH  081%=      5-min Rain = 0
KWOS 150840Z 32011KT 01/M02 A3019 RMK A01 T00101018  RH  083%=      5-min Rain = 0
KWOS 150845Z 32011KT 01/M02 A3019 RMK A01 T00101018  RH  082%=      5-min Rain = 0
KWOS 150850Z 32010KT 01/M02 A3019 RMK A01 T00101018  RH  082%=      5-min Rain = 0
KWOS 150855Z 32010KT 01/M02 A3019 RMK A01 T00101018  RH  082%=      5-min Rain = 0
KWOS 150900Z 32010KT 01/M02 A3019 RMK A01 T00101018  RH  082%=      5-min Rain = 0
KWOS 150905Z 32010KT 01/M02 A3019 RMK A01 T00101019  RH  082%=      5-min Rain = 0
KWOS 150910Z 32009KT 01/M02 A3019 RMK A01 T00101019  RH  082%=      5-min Rain = 0
KWOS 150915Z 31008KT 01/M02 A3019 RMK A01 T00101019  RH  082%=      5-min Rain = 0
KWOS 150920Z 31008KT 01/M02 A302 RMK A01 T00101019  RH  082%=      5-min Rain = 0
KWOS 150925Z 31008KT 01/M02 A302 RMK A01 T00101019  RH  082%=      5-min Rain = 0
KWOS 150930Z 31008KT 01/M02 A302 RMK A01 T00101019  RH  082%=      5-min Rain = 0
KWOS 150935Z 31008KT 01/M02 A302 RMK A01 T00091019  RH  082%=      5-min Rain = 0
KWOS 150940Z 31007KT 01/M02 A302 RMK A01 T00081019  RH  083%=      5-min Rain = 0
KWOS 150945Z 30007KT 01/M02 A302 RMK A01 T00081019  RH  083%=      5-min Rain = 0
KWOS 150950Z 31007KT 01/M02 A302 RMK A01 T00081019  RH  083%=      5-min Rain = 0
KWOS 150955Z 30006KT 01/M02 A302 RMK A01 T00081019  RH  083%=      5-min Rain = 0
KWOS 151000Z 30006KT 01/M02 A302 RMK A01 T00081019  RH  083%=      5-min Rain = 0
KWOS 151005Z 30006KT 01/M02 A302 RMK A01 T00081019  RH  083%=      5-min Rain = 0
KWOS 151010Z 30007KT 01/M02 A302 RMK A01 T00071018  RH  084%=      5-min Rain = 0
KWOS 151015Z 30007KT 01/M02 A302 RMK A01 T00081018  RH  084%=      5-min Rain = 0
KWOS 151020Z 30007KT 01/M02 A302 RMK A01 T00081019  RH  084%=      5-min Rain = 0
KWOS 151025Z 30008KT 01/M02 A302 RMK A01 T00081019  RH  083%=      5-min Rain = 0
KWOS 151030Z 30007KT 01/M02 A302 RMK A01 T00081019  RH  083%=      5-min Rain = 0
KWOS 151035Z 30008KT 01/M02 A302 RMK A01 T00071019  RH  083%=      5-min Rain = 0
KWOS 151040Z 30008KT 01/M02 A302 RMK A01 T00071019  RH  084%=      5-min Rain = 0
KWOS 151045Z 30009KT 01/M02 A302 RMK A01 T00071019  RH  084%=      5-min Rain = 0
KWOS 151050Z 30009KT 01/M02 A302 RMK A01 T00061020  RH  084%=      5-min Rain = 0
KWOS 151055Z 30009KT 01/M02 A302 RMK A01 T00071020  RH  083%=      5-min Rain = 0
KWOS 151100Z 30009KT 01/M02 A302 RMK A01 T00071021  RH  083%=      5-min Rain = 0
KWOS 151105Z 30008KT 01/M02 A302 RMK A01 T00071021  RH  082%=      5-min Rain = 0
KWOS 151110Z 30008KT 01/M02 A302 RMK A01 T00081022  RH  081%=      5-min Rain = 0
KWOS 151115Z 30009KT 01/M02 A302 RMK A01 T00091023  RH  080%=      5-min Rain = 0
KWOS 151120Z 30008KT 01/M02 A302 RMK A01 T00081023  RH  081%=      5-min Rain = 0
KWOS 151125Z 30008KT 01/M02 A302 RMK A01 T00061022  RH  082%=      5-min Rain = 0
KWOS 151130Z 30009KT 01/M02 A302 RMK A01 T00061023  RH  082%=      5-min Rain = 0
KWOS 151135Z 30009KT 01/M02 A3021 RMK A01 T00061023  RH  082%=      5-min Rain = 0
KWOS 151140Z 30008KT 01/M02 A3021 RMK A01 T00051023  RH  082%=      5-min Rain = 0
KWOS 151145Z 30009KT 01/M02 A3021 RMK A01 T00051023  RH  083%=      5-min Rain = 0
KWOS 151150Z 30009KT 01/M02 A3021 RMK A01 T00051023  RH  083%=      5-min Rain = 0
KWOS 151155Z 30009KT 00/M02 A3021 RMK A01 T00041023  RH  083%=      5-min Rain = 0
KWOS 151200Z 30009KT 00/M02 A3021 RMK A01 T00041023  RH  083%=      5-min Rain = 0
KWOS 151205Z 31010KT 01/M02 A3021 RMK A01 T00051024  RH  082%=      5-min Rain = 0
KWOS 151210Z 31010KT 00/M02 A3021 RMK A01 T00041024  RH  082%=      5-min Rain = 0
KWOS 151215Z 31009KT 00/M02 A3021 RMK A01 T00031024  RH  083%=      5-min Rain = 0
KWOS 151220Z 30009KT 00/M02 A3021 RMK A01 T00031024  RH  083%=      5-min Rain = 0
KWOS 151225Z 30008KT 00/M02 A3021 RMK A01 T00021024  RH  084%=      5-min Rain = 0
KWOS 151230Z 30009KT 00/M02 A3021 RMK A01 T00021024  RH  084%=      5-min Rain = 0
KWOS 151235Z 31009KT 00/M02 A3021 RMK A01 T00011024  RH  084%=      5-min Rain = 0
KWOS 151240Z 31009KT 00/02 A3021 RMK A01 T00000-24  RH  084%=      5-min Rain = 0
KWOS 151245Z 31009KT 00/M02 A3021 RMK A01 T00011024  RH  084%=      5-min Rain = 0
KWOS 151250Z 31009KT 00/M03 A3021 RMK A01 T00021025  RH  083%=      5-min Rain = 0
KWOS 151255Z 31008KT 00/03 A3022 RMK A01 T00-00-25  RH  084%=      5-min Rain = 0
KWOS 151300Z 31009KT 00/M02 A3022 RMK A01 T00011024  RH  084%=      5-min Rain = 0
KWOS 151305Z 31010KT 00/M03 A3022 RMK A01 T00031026  RH  082%=      5-min Rain = 0
KWOS 151310Z 31009KT 00/M03 A3022 RMK A01 T00031026  RH  082%=      5-min Rain = 0
KWOS 151315Z 31009KT 00/M03 A3022 RMK A01 T00021026  RH  082%=      5-min Rain = 0
KWOS 151320Z 32010KT 00/M03 A3022 RMK A01 T00021026  RH  082%=      5-min Rain = 0
KWOS 151325Z 32010KT 00/M03 A3022 RMK A01 T00011027  RH  082%=      5-min Rain = 0
KWOS 151330Z 32011KT 00/M03 A3022 RMK A01 T00011027  RH  082%=      5-min Rain = 0
KWOS 151335Z 33011KT 00/03 A3023 RMK A01 T00000-28  RH  082%=      5-min Rain = 0
KWOS 151340Z 33010KT 00/M03 A3023 RMK A01 T00011028  RH  082%=      5-min Rain = 0
KWOS 151345Z 33010KT 00/M03 A3023 RMK A01 T00011028  RH  082%=      5-min Rain = 0
KWOS 151350Z 32010KT 00/M03 A3023 RMK A01 T00011028  RH  082%=      5-min Rain = 0
KWOS 151355Z 33010KT 00/M03 A3023 RMK A01 T00021027  RH  081%=      5-min Rain = 0
KWOS 151400Z 33011KT 00/M03 A3023 RMK A01 T00031027  RH  081%=      5-min Rain = 0
KWOS 151405Z 32010KT 00/M03 A3024 RMK A01 T00041027  RH  081%=      5-min Rain = 0
KWOS 151410Z 32010KT 01/M03 A3024 RMK A01 T00051026  RH  080%=      5-min Rain = 0
KWOS 151415Z 32010KT 01/M03 A3024 RMK A01 T00061026  RH  080%=      5-min Rain = 0
KWOS 151420Z 32010KT 01/M03 A3024 RMK A01 T00081026  RH  079%=      5-min Rain = 0
KWOS 151425Z 32010KT 01/M03 A3025 RMK A01 T00091025  RH  079%=      5-min Rain = 0
KWOS 151430Z 33010KT 01/M03 A3025 RMK A01 T00101025  RH  078%=      5-min Rain = 0
KWOS 151435Z 33010KT 01/M03 A3025 RMK A01 T00121025  RH  078%=      5-min Rain = 0
KWOS 151440Z 33010KT 01/M02 A3025 RMK A01 T00131024  RH  077%=      5-min Rain = 0
KWOS 151445Z 34009KT 02/M02 A3026 RMK A01 T00151023  RH  077%=      5-min Rain = 0
KWOS 151450Z 34009KT 02/M02 A3026 RMK A01 T00161021  RH  077%=      5-min Rain = 0
KWOS 151455Z 34008KT 02/M02 A3026 RMK A01 T00171019  RH  078%=      5-min Rain = 0
KWOS 151500Z 34008KT 02/M02 A3027 RMK A01 T00191018  RH  077%=      5-min Rain = 0
KWOS 151505Z 35010KT 02/M02 A3027 RMK A01 T00211019  RH  076%=      5-min Rain = 0
KWOS 151510Z 35010KT 02/M02 A3027 RMK A01 T00231019  RH  075%=      5-min Rain = 0
KWOS 151515Z 34010KT 02/M02 A3027 RMK A01 T00241018  RH  074%=      5-min Rain = 0
KWOS 151520Z 34010KT 03/M02 A3027 RMK A01 T00251017  RH  075%=      5-min Rain = 0
KWOS 151525Z 34011KT 03/M01 A3027 RMK A01 T00271014  RH  075%=      5-min Rain = 0
KWOS 151530Z 34010KT 03/M01 A3027 RMK A01 T00271014  RH  075%=      5-min Rain = 0
KWOS 151535Z 34010KT 03/M01 A3027 RMK A01 T00311009  RH  076%=      5-min Rain = 0
KWOS 151540Z 34010KT 03/M01 A3028 RMK A01 T00331009  RH  075%=      5-min Rain = 0
KWOS 151545Z 35012KT 04/M01 A3028 RMK A01 T00361012  RH  072%=      5-min Rain = 0
KWOS 151550Z 35011KT 04/M01 A3028 RMK A01 T00391009  RH  072%=      5-min Rain = 0
KWOS 151555Z 35011KT 04/M01 A3028 RMK A01 T00421007  RH  071%=      5-min Rain = 0
KWOS 151600Z 35012KT 04/M01 A3028 RMK A01 T00441006  RH  071%=      5-min Rain = 0
KWOS 151605Z 34011KT 05/M00 A3028 RMK A01 T00461004  RH  071%=      5-min Rain = 0
KWOS 151610Z 34011KT 05/M01 A3028 RMK A01 T00481005  RH  069%=      5-min Rain = 0
KWOS 151615Z 35011KT 05/M00 A3028 RMK A01 T00511001  RH  070%=      5-min Rain = 0
KWOS 151620Z 35011KT 05/M00 A3028 RMK A01 T00521003  RH  068%=      5-min Rain = 0
KWOS 151625Z 35009KT 06/00 A3028 RMK A01 T00550002  RH  069%=      5-min Rain = 0
KWOS 151630Z 00010KT 06/00 A3028 RMK A01 T00570001  RH  068%=      5-min Rain = 0
KWOS 151635Z 36010KT 06/00 A3028 RMK A01 T00600003  RH  068%=      5-min Rain = 0
KWOS 151640Z 36009KT 06/00 A3028 RMK A01 T00610001  RH  066%=      5-min Rain = 0
KWOS 151645Z 36008KT 06/00 A3028 RMK A01 T00620003  RH  067%=      5-min Rain = 0
KWOS 151650Z 35008KT 06/01 A3028 RMK A01 T00640005  RH  066%=      5-min Rain = 0
KWOS 151655Z 36008KT 07/01 A3028 RMK A01 T00670007  RH  066%=      5-min Rain = 0
KWOS 151700Z 36006KT 07/00 A3028 RMK A01 T00680004  RH  064%=      5-min Rain = 0
KWOS 151705Z 35006KT 07/00 A3028 RMK A01 T00700003  RH  063%=      5-min Rain = 0
KWOS 151710Z 01007KT 07/00 A3028 RMK A01 T00730001  RH  061%=      5-min Rain = 0
KWOS 151715Z 36006KT 07/00 A3028 RMK A01 T00740003  RH  061%=      5-min Rain = 0
KWOS 151720Z 00007KT 08/00 A3028 RMK A01 T00770004  RH  061%=      5-min Rain = 0
KWOS 151725Z 01007KT 08/01 A3028 RMK A01 T00810006  RH  060%=      5-min Rain = 0
KWOS 151730Z 01005KT 08/00 A3028 RMK A01 T00820003  RH  058%=      5-min Rain = 0
KWOS 151735Z 01006KT 08/M00 A3028 RMK A01 T00821001  RH  056%=      5-min Rain = 0
KWOS 151740Z 00006KT 08/00 A3028 RMK A01 T00830001  RH  057%=      5-min Rain = 0
KWOS 151745Z 01006KT 08/M01 A3027 RMK A01 T00841005  RH  054%=      5-min Rain = 0
KWOS 151750Z 01007KT 09/00 A3027 RMK A01 T00890004  RH  056%=      5-min Rain = 0
KWOS 151755Z 01007KT 09/M01 A3027 RMK A01 T00861005  RH  053%=      5-min Rain = 0
KWOS 151800Z 01006KT 09/M01 A3027 RMK A01 T00861008  RH  052%=      5-min Rain = 0
KWOS 151805Z 35007G12KT 09/M01 A3027 RMK A01 T00891007  RH  052%=      5-min Rain = 0
KWOS 151810Z 35006G12KT 09/M01 A3027 RMK A01 T00891008  RH  051%=      5-min Rain = 0
KWOS 151815Z 34004KT 09/M01 A3026 RMK A01 T00931007  RH  050%=      5-min Rain = 0
KWOS 151820Z 01006KT 09/M01 A3026 RMK A01 T00931006  RH  051%=      5-min Rain = 0
KWOS 151825Z 02006KT 09/M01 A3026 RMK A01 T00941010  RH  049%=      5-min Rain = 0
KWOS 151830Z 35004KT 09/M01 A3026 RMK A01 T00941009  RH  049%=      5-min Rain = 0
KWOS 151835Z 02007KT 10/M00 A3026 RMK A01 T00981002  RH  050%=      5-min Rain = 0
KWOS 151840Z 36006KT 10/M00 A3025 RMK A01 T00991002  RH  050%=      5-min Rain = 0
KWOS 151845Z 02004KT 10/M01 A3025 RMK A01 T00971013  RH  047%=      5-min Rain = 0
KWOS 151850Z 35004KT 10/M01 A3025 RMK A01 T00991010  RH  047%=      5-min Rain = 0
KWOS 151855Z 35007KT 10/M01 A3024 RMK A01 T01031005  RH  048%=      5-min Rain = 0
KWOS 151900Z 35006KT 10/M00 A3024 RMK A01 T01031002  RH  049%=      5-min Rain = 0
KWOS 151905Z 33005G10KT 10/M01 A3024 RMK A01 T01041006  RH  047%=      5-min Rain = 0
KWOS 151910Z 35006KT 11/M01 A3023 RMK A01 T01051009  RH  045%=      5-min Rain = 0
KWOS 151915Z 02009KT 11/M00 A3023 RMK A01 T01081004  RH  046%=      5-min Rain = 0
KWOS 151920Z 02007KT 11/M01 A3023 RMK A01 T01081014  RH  043%=      5-min Rain = 0
KWOS 151925Z 00009G15KT 11/M01 A3022 RMK A01 T01121007  RH  045%=      5-min Rain = 0
KWOS 151930Z 33006G13KT 11/M02 A3022 RMK A01 T01081019  RH  042%=      5-min Rain = 0
KWOS 151935Z 00009KT 11/M01 A3022 RMK A01 T01111012  RH  043%=      5-min Rain = 0
KWOS 151940Z 35008KT 11/M02 A3021 RMK A01 T01101017  RH  042%=      5-min Rain = 0
KWOS 151945Z 35007G12KT 11/M01 A3021 RMK A01 T01131014  RH  042%=      5-min Rain = 0
KWOS 151950Z 01008KT 11/M02 A3021 RMK A01 T01121020  RH  040%=      5-min Rain = 0
KWOS 151955Z 34009KT 12/M02 A3021 RMK A01 T01151018  RH  040%=      5-min Rain = 0
KWOS 152000Z 35008G13KT 11/M02 A302 RMK A01 T01141021  RH  039%=      5-min Rain = 0
KWOS 152005Z 35009KT 12/M02 A302 RMK A01 T01151023  RH  038%=      5-min Rain = 0
KWOS 152010Z 00011KT 12/M02 A302 RMK A01 T01191015  RH  040%=      5-min Rain = 0
KWOS 152015Z 35010KT 12/M03 A302 RMK A01 T01151026  RH  038%=      5-min Rain = 0
KWOS 152020Z 36006KT 11/M03 A3019 RMK A01 T01141031  RH  036%=      5-min Rain = 0
KWOS 152025Z 33009KT 12/M03 A3019 RMK A01 T01161027  RH  037%=      5-min Rain = 0
KWOS 152030Z 34010G17KT 12/M02 A3019 RMK A01 T01191024  RH  037%=      5-min Rain = 0
KWOS 152035Z 34006G11KT 12/M03 A3019 RMK A01 T01161028  RH  037%=      5-min Rain = 0
KWOS 152040Z 35007G13KT 12/M03 A3019 RMK A01 T01191025  RH  037%=      5-min Rain = 0
KWOS 152045Z 36008KT 12/M03 A3018 RMK A01 T01201026  RH  036%=      5-min Rain = 0
KWOS 152050Z 35004G9KT 12/M03 A3018 RMK A01 T01211027  RH  036%=      5-min Rain = 0
KWOS 152055Z 36004KT 12/M03 A3018 RMK A01 T01241025  RH  036%=      5-min Rain = 0
KWOS 152100Z 31007KT 12/M02 A3018 RMK A01 T01211020  RH  038%=      5-min Rain = 0
KWOS 152105Z 35007KT 12/M03 A3018 RMK A01 T01211026  RH  036%=      5-min Rain = 0
KWOS 152110Z 34005KT 13/M02 A3018 RMK A01 T01251024  RH  036%=      5-min Rain = 0
KWOS 152115Z 34009G15KT 13/M02 A3018 RMK A01 T01251024  RH  036%=      5-min Rain = 0
KWOS 152120Z 34009KT 12/M03 A3017 RMK A01 T01231027  RH  035%=      5-min Rain = 0
KWOS 152125Z 35006KT 12/M03 A3017 RMK A01 T01221031  RH  035%=      5-min Rain = 0
KWOS 152130Z 36005G10KT 12/M03 A3017 RMK A01 T01221033  RH  034%=      5-min Rain = 0
KWOS 152135Z 01004KT 12/M03 A3017 RMK A01 T01221032  RH  034%=      5-min Rain = 0
KWOS 152140Z 34002KT 12/M03 A3017 RMK A01 T01241031  RH  034%=      5-min Rain = 0
KWOS 152145Z 34007KT 13/M02 A3017 RMK A01 T01271024  RH  035%=      5-min Rain = 0
KWOS 152150Z 33008KT 12/M03 A3017 RMK A01 T01241029  RH  035%=      5-min Rain = 0
KWOS 152155Z 00004KT 12/M03 A3017 RMK A01 T01241034  RH  033%=      5-min Rain = 0
KWOS 152200Z 33007G13KT 13/M03 A3016 RMK A01 T01251030  RH  034%=      5-min Rain = 0
KWOS 152205Z 35004KT 13/M03 A3016 RMK A01 T01281026  RH  035%=      5-min Rain = 0
KWOS 152210Z 32007KT 13/M03 A3016 RMK A01 T01261029  RH  034%=      5-min Rain = 0
KWOS 152215Z 32005KT 13/M03 A3016 RMK A01 T01261030  RH  034%=      5-min Rain = 0
KWOS 152220Z 33004KT 13/M04 A3016 RMK A01 T01251037  RH  033%=      5-min Rain = 0
KWOS 152225Z 32006KT 13/M04 A3016 RMK A01 T01261036  RH  032%=      5-min Rain = 0
KWOS 152230Z 33006G11KT 13/M03 A3016 RMK A01 T01271033  RH  033%=      5-min Rain = 0
KWOS 152235Z 34006KT 13/M04 A3015 RMK A01 T01261035  RH  033%=      5-min Rain = 0
KWOS 152240Z 30006KT 13/M03 A3015 RMK A01 T01261032  RH  034%=      5-min Rain = 0
KWOS 152245Z 29005KT 13/M03 A3015 RMK A01 T01271030  RH  034%=      5-min Rain = 0
KWOS 152250Z 30005KT 13/M03 A3015 RMK A01 T01271030  RH  034%=      5-min Rain = 0
KWOS 152255Z 33005KT 13/M04 A3015 RMK A01 T01261036  RH  033%=      5-min Rain = 0
KWOS 152300Z 34004KT 13/M04 A3015 RMK A01 T01261035  RH  033%=      5-min Rain = 0
KWOS 152305Z 32003KT 13/M04 A3015 RMK A01 T01251036  RH  033%=      5-min Rain = 0
KWOS 152310Z 30005KT 13/M03 A3015 RMK A01 T01271032  RH  033%=      5-min Rain = 0
KWOS 152315Z 29004KT 13/M04 A3015 RMK A01 T01251037  RH  032%=      5-min Rain = 0
KWOS 152320Z 31004KT 13/M04 A3014 RMK A01 T01271036  RH  032%=      5-min Rain = 0
KWOS 152325Z 33003KT 13/M04 A3014 RMK A01 T01261035  RH  033%=      5-min Rain = 0
KWOS 152330Z 33004KT 13/M03 A3014 RMK A01 T01281028  RH  034%=      5-min Rain = 0
KWOS 152335Z 28004KT 13/M03 A3014 RMK A01 T01261034  RH  033%=      5-min Rain = 0
KWOS 152340Z 28005KT 13/M03 A3014 RMK A01 T01261033  RH  033%=      5-min Rain = 0
KWOS 152345Z 28003KT 13/M03 A3014 RMK A01 T01261031  RH  034%=      5-min Rain = 0
KWOS 152350Z 26002KT 13/M03 A3014 RMK A01 T01271031  RH  033%=      5-min Rain = 0
KWOS 152355Z 24004KT 13/M03 A3014 RMK A01 T01261031  RH  034%=      5-min Rain = 0
KWOS 160000Z 24005KT 12/M03 A3014 RMK A01 T01231025  RH  036%=      5-min Rain = 0
KWOS 160005Z 26004KT 12/M03 A3014 RMK A01 T01221026  RH  036%=      5-min Rain = 0
KWOS 160010Z 28003KT 12/M03 A3014 RMK A01 T01221027  RH  036%=      5-min Rain = 0
KWOS 160015Z 27003KT 12/M02 A3014 RMK A01 T01211021  RH  038%=      5-min Rain = 0
KWOS 160020Z 27003KT 12/M01 A3013 RMK A01 T01171010  RH  042%=      5-min Rain = 0
KWOS 160025Z 25002KT 11/M01 A3013 RMK A01 T01141005  RH  044%=      5-min Rain = 0
KWOS 160030Z 24003KT 11/M00 A3013 RMK A01 T01111004  RH  045%=      5-min Rain = 0
KWOS 160035Z 23003KT 11/M00 A3013 RMK A01 T01071004  RH  047%=      5-min Rain = 0
KWOS 160040Z 22003KT 10/M00 A3013 RMK A01 T01021002  RH  049%=      5-min Rain = 0
KWOS 160045Z 23003KT 10/M01 A3013 RMK A01 T00981005  RH  049%=      5-min Rain = 0
KWOS 160050Z 22002KT 10/M01 A3013 RMK A01 T00951006  RH  050%=      5-min Rain = 0
KWOS 160055Z 22002KT 09/M03 A3013 RMK A01 T00941026  RH  043%=      5-min Rain = 0
KWOS 160100Z 22002KT 09/M03 A3013 RMK A01 T00941031  RH  042%=      5-min Rain = 0
KWOS 160105Z 20002KT 09/M02 A3013 RMK A01 T00911024  RH  045%=      5-min Rain = 0
KWOS 160110Z 21002KT 09/M03 A3013 RMK A01 T00891025  RH  045%=      5-min Rain = 0
KWOS 160115Z 21003KT 09/M03 A3013 RMK A01 T00901027  RH  044%=      5-min Rain = 0
KWOS 160120Z 20003KT 09/M02 A3013 RMK A01 T00901020  RH  046%=      5-min Rain = 0
KWOS 160125Z 19003KT 08/M01 A3013 RMK A01 T00831011  RH  052%=      5-min Rain = 0
KWOS 160130Z 20004KT 08/M01 A3013 RMK A01 T00821013  RH  052%=      5-min Rain = 0
KWOS 160135Z 19004KT 08/M01 A3013 RMK A01 T00801011  RH  053%=      5-min Rain = 0
KWOS 160140Z 19005KT 08/M01 A3013 RMK A01 T00771008  RH  055%=      5-min Rain = 0
KWOS 160145Z 18004KT 08/M01 A3013 RMK A01 T00761009  RH  056%=      5-min Rain = 0
KWOS 160150Z 18004KT 08/M01 A3013 RMK A01 T00751007  RH  057%=      5-min Rain = 0
KWOS 160155Z 19004KT 07/M01 A3013 RMK A01 T00741009  RH  056%=      5-min Rain = 0
KWOS 160200Z 19005KT 07/M01 A3013 RMK A01 T00721006  RH  058%=      5-min Rain = 0
KWOS 160205Z 18005KT 07/M01 A3013 RMK A01 T00701011  RH  057%=      5-min Rain = 0
KWOS 160210Z 18004KT 07/M01 A3013 RMK A01 T00671008  RH  059%=      5-min Rain = 0
KWOS 160215Z 18005KT 06/M01 A3013 RMK A01 T00621008  RH  062%=      5-min Rain = 0
KWOS 160220Z 18005KT 06/M00 A3013 RMK A01 T00601003  RH  065%=      5-min Rain = 0
KWOS 160225Z 18005KT 06/M00 A3013 RMK A01 T00601002  RH  065%=      5-min Rain = 0
KWOS 160230Z 18006KT 06/M00 A3014 RMK A01 T00601004  RH  064%=      5-min Rain = 0
KWOS 160235Z 18006KT 06/M00 A3014 RMK A01 T00591003  RH  065%=      5-min Rain = 0
KWOS 160240Z 18007KT 06/M01 A3014 RMK A01 T00591009  RH  063%=      5-min Rain = 0
KWOS 160245Z 18007KT 06/M01 A3014 RMK A01 T00551007  RH  065%=      5-min Rain = 0
KWOS 160250Z 18008KT 06/M01 A3014 RMK A01 T00601009  RH  062%=      5-min Rain = 0
KWOS 160255Z 18008KT 06/M01 A3014 RMK A01 T00581010  RH  062%=      5-min Rain = 0
KWOS 160300Z 18008KT 06/M01 A3014 RMK A01 T00551010  RH  063%=      5-min Rain = 0
KWOS 160305Z 18008KT 05/M01 A3014 RMK A01 T00541010  RH  064%=      5-min Rain = 0
KWOS 160310Z 18007KT 05/M01 A3014 RMK A01 T00531008  RH  066%=      5-min Rain = 0
KWOS 160315Z 19007KT 05/M01 A3014 RMK A01 T00501005  RH  068%=      5-min Rain = 0
KWOS 160320Z 19006KT 05/M00 A3014 RMK A01 T00481003  RH  070%=      5-min Rain = 0
KWOS 160325Z 19006KT 05/M00 A3014 RMK A01 T00471002  RH  071%=      5-min Rain = 0
KWOS 160330Z 18006KT 04/M00 A3014 RMK A01 T00431004  RH  073%=      5-min Rain = 0
KWOS 160335Z 17007KT 04/M00 A3015 RMK A01 T00431002  RH  073%=      5-min Rain = 0
KWOS 160340Z 18007KT 04/M00 A3015 RMK A01 T00441002  RH  073%=      5-min Rain = 0
KWOS 160345Z 18007KT 04/M00 A3015 RMK A01 T00431004  RH  073%=      5-min Rain = 0
KWOS 160350Z 18006KT 04/M00 A3015 RMK A01 T00401004  RH  074%=      5-min Rain = 0
KWOS 160355Z 18007KT 04/M00 A3015 RMK A01 T00391002  RH  075%=      5-min Rain = 0
KWOS 160400Z 19006KT 04/M00 A3015 RMK A01 T00401001  RH  075%=      5-min Rain = 0
KWOS 160405Z 19006KT 04/M00 A3015 RMK A01 T00391001  RH  076%=      5-min Rain = 0
KWOS 160410Z 19006KT 04/M00 A3015 RMK A01 T00371001  RH  077%=      5-min Rain = 0
KWOS 160415Z 19006KT 03/M00 A3015 RMK A01 T00331003  RH  078%=      5-min Rain = 0
KWOS 160420Z 20006KT 03/M00 A3014 RMK A01 T00271003  RH  081%=      5-min Rain = 0
KWOS 160425Z 20006KT 03/M00 A3014 RMK A01 T00251003  RH  083%=      5-min Rain = 0
KWOS 160430Z 20006KT 03/M00 A3014 RMK A01 T00251002  RH  083%=      5-min Rain = 0
KWOS 160435Z 20007KT 02/M00 A3014 RMK A01 T00241003  RH  084%=      5-min Rain = 0
KWOS 160440Z 20007KT 02/M00 A3014 RMK A01 T00231003  RH  084%=      5-min Rain = 0
KWOS 160445Z 21007KT 02/M00 A3014 RMK A01 T00221004  RH  084%=      5-min Rain = 0
KWOS 160450Z 21007KT 02/M00 A3014 RMK A01 T00221003  RH  084%=      5-min Rain = 0
KWOS 160455Z 21007KT 02/M00 A3014 RMK A01 T00221003  RH  084%=      5-min Rain = 0
KWOS 160500Z 21006KT 02/M00 A3014 RMK A01 T00221004  RH  084%=      5-min Rain = 0
KWOS 160505Z 21007KT 02/M00 A3014 RMK A01 T00221004  RH  084%=      5-min Rain = 0
KWOS 160510Z 22007KT 02/M00 A3014 RMK A01 T00221004  RH  084%=      5-min Rain = 0
KWOS 160515Z 22007KT 02/M00 A3014 RMK A01 T00231004  RH  084%=      5-min Rain = 0
KWOS 160520Z 22007KT 02/M00 A3014 RMK A01 T00231004  RH  083%=      5-min Rain = 0
KWOS 160525Z 21007KT 02/M01 A3014 RMK A01 T00221005  RH  083%=      5-min Rain = 0
KWOS 160530Z 21007KT 02/M01 A3014 RMK A01 T00201006  RH  084%=      5-min Rain = 0
KWOS 160535Z 22006KT 02/M01 A3014 RMK A01 T00181005  RH  085%=      5-min Rain = 0
KWOS 160540Z 22006KT 02/M01 A3014 RMK A01 T00171006  RH  086%=      5-min Rain = 0
KWOS 160545Z 22007KT 02/M01 A3013 RMK A01 T00171006  RH  086%=      5-min Rain = 0
KWOS 160550Z 22007KT 02/M01 A3013 RMK A01 T00171006  RH  085%=      5-min Rain = 0
KWOS 160555Z 22007KT 02/M01 A3013 RMK A01 T00181007  RH  085%=      5-min Rain = 0

Page generated in 0.0284 seconds.